Time;durP1;ratioP1;P1;durP2;ratioP2;P2;SDS_P1;SDS_P2;PMS_P1;PMS_P2;Temp;Humidity;BMP_temperature;BMP_pressure;BME280_temperature;BME280_humidity;BME280_pressure;Samples;Min_cycle;Max_cycle;Signal;HPM_P1;HPM_P2
2022/06/01 00:01:34;;;;;;;3.07;2.50;;;;;;;13.83;100.00;100746.22;5059692;28;20462;-79
2022/06/01 00:04:00;;;;;;;4.07;2.50;;;;;;;13.74;100.00;100747.34;5060354;28;20529;-79
2022/06/01 00:06:27;;;;;;;2.67;2.20;;;;;;;13.70;100.00;100744.44;5060385;28;20446;-79
2022/06/01 00:08:55;;;;;;;3.37;2.67;;;;;;;13.71;100.00;100739.78;5060803;28;20937;-79
2022/06/01 00:11:21;;;;;;;3.40;2.57;;;;;;;13.67;100.00;100747.78;5060705;28;20861;-79
2022/06/01 00:13:48;;;;;;;3.60;2.67;;;;;;;13.67;100.00;100744.25;5061090;28;20445;-79
2022/06/01 00:16:14;;;;;;;4.50;3.20;;;;;;;13.67;100.00;100741.53;5060984;28;20443;-79
2022/06/01 00:18:41;;;;;;;5.00;2.90;;;;;;;13.69;100.00;100740.13;5060950;28;20451;-80
2022/06/01 00:21:08;;;;;;;3.03;2.20;;;;;;;13.70;100.00;100736.28;5059271;28;20478;-80
2022/06/01 00:23:34;;;;;;;4.40;3.33;;;;;;;13.67;100.00;100736.91;5059182;28;20485;-80
2022/06/01 00:26:03;;;;;;;6.93;3.47;;;;;;;13.69;100.00;100733.88;5058788;28;21002;-80
2022/06/01 00:28:29;;;;;;;2.73;2.40;;;;;;;13.69;100.00;100739.31;5058504;28;20438;-80
2022/06/01 00:30:56;;;;;;;7.13;3.50;;;;;;;13.71;100.00;100737.88;5059370;28;20487;-79
2022/06/01 00:33:23;;;;;;;4.67;3.33;;;;;;;13.72;100.00;100749.56;5060136;28;20450;-79
2022/06/01 00:35:50;;;;;;;3.40;2.90;;;;;;;13.76;100.00;100755.97;5059485;28;20438;-79
2022/06/01 00:38:17;;;;;;;3.90;3.10;;;;;;;13.75;100.00;100751.66;5059466;28;20450;-79
2022/06/01 00:40:44;;;;;;;5.90;3.47;;;;;;;13.69;100.00;100748.28;5055426;28;20525;-74
2022/06/01 00:43:22;;;;;;;4.80;3.10;;;;;;;13.71;100.00;100759.66;5054893;28;20462;-74
2022/06/01 00:45:49;;;;;;;4.30;3.20;;;;;;;13.63;100.00;100741.38;5054870;28;20470;-73
2022/06/01 00:48:15;;;;;;;3.60;2.60;;;;;;;13.63;100.00;100739.47;5054693;28;20438;-75
2022/06/01 00:50:44;;;;;;;3.70;2.67;;;;;;;13.68;100.00;100741.25;5057007;28;20445;-79
2022/06/01 00:53:15;;;;;;;4.40;3.17;;;;;;;13.69;100.00;100742.03;5059370;28;20473;-78
2022/06/01 00:55:45;;;;;;;4.20;3.00;;;;;;;13.69;100.00;100740.13;5057508;28;20433;-78
2022/06/01 00:58:15;;;;;;;4.70;3.83;;;;;;;13.72;100.00;100741.38;5057884;28;20936;-78
2022/06/01 01:00:44;;;;;;;7.97;3.47;;;;;;;13.73;100.00;100743.00;5057783;28;20435;-78
2022/06/01 01:03:12;;;;;;;5.50;2.37;;;;;;;13.71;100.00;100743.31;5057363;28;20462;-78
2022/06/01 01:05:41;;;;;;;2.77;2.43;;;;;;;13.77;100.00;100752.94;5057649;28;20482;-78
2022/06/01 01:08:09;;;;;;;3.23;2.73;;;;;;;13.81;100.00;100747.66;5057647;28;20446;-78
2022/06/01 01:10:36;;;;;;;3.37;2.80;;;;;;;13.80;100.00;100752.28;5057482;28;20438;-77
2022/06/01 01:13:05;;;;;;;4.70;3.63;;;;;;;13.86;100.00;100763.84;5057496;28;20457;-78
2022/06/01 01:15:35;;;;;;;5.13;3.10;;;;;;;13.84;100.00;100760.63;5057125;28;20439;-77
2022/06/01 01:18:07;;;;;;;5.13;3.20;;;;;;;13.81;100.00;100766.69;5056690;28;20449;-77
2022/06/01 01:20:35;;;;;;;5.60;3.50;;;;;;;13.82;100.00;100771.06;5056742;28;20473;-78
2022/06/01 01:23:13;;;;;;;3.00;2.50;;;;;;;13.83;100.00;100761.75;5056230;28;20848;-77
2022/06/01 01:25:41;;;;;;;3.43;3.03;;;;;;;13.85;100.00;100759.50;5057044;28;20516;-78
2022/06/01 01:28:09;;;;;;;3.10;2.77;;;;;;;13.83;100.00;100757.09;5057933;28;20442;-77
2022/06/01 01:31:04;;;;;;;4.53;3.10;;;;;;;13.76;100.00;100756.78;5054358;28;20541;-76
2022/06/01 01:33:32;;;;;;;4.60;3.47;;;;;;;13.69;100.00;100753.72;5055642;28;20962;-78
2022/06/01 01:36:02;;;;;;;3.73;3.00;;;;;;;13.68;100.00;100749.41;5057696;28;20442;-78
2022/06/01 01:38:36;;;;;;;3.50;2.93;;;;;;;13.65;100.00;100736.44;5057527;28;20462;-78
2022/06/01 01:41:16;;;;;;;4.27;3.00;;;;;;;13.64;100.00;100745.72;5056181;28;20465;-78
2022/06/01 01:43:49;;;;;;;4.60;2.67;;;;;;;13.66;100.00;100745.41;5056674;28;20431;-78
2022/06/01 01:46:15;;;;;;;4.77;3.23;;;;;;;13.64;100.00;100743.00;5055616;28;20462;-77
2022/06/01 01:48:42;;;;;;;5.80;3.27;;;;;;;13.69;100.00;100747.50;5056521;28;20449;-78
2022/06/01 01:51:08;;;;;;;3.20;2.77;;;;;;;13.71;100.00;100743.31;5056450;28;20458;-78
2022/06/01 01:53:35;;;;;;;3.17;2.50;;;;;;;13.74;100.00;100737.25;5056650;28;20500;-78
2022/06/01 01:56:22;;;;;;;4.37;3.23;;;;;;;13.75;100.00;100741.56;5055656;28;20443;-77
2022/06/01 01:59:16;;;;;;;4.17;2.67;;;;;;;13.69;100.00;100731.94;5055196;28;20801;-77
2022/06/01 02:01:48;;;;;;;3.17;2.87;;;;;;;13.62;100.00;100732.41;5055737;28;20466;-79
2022/06/01 02:07:12;;;;;;;4.20;3.10;;;;;;;13.48;100.00;100739.13;5056847;28;20453;-78
2022/06/01 02:12:42;;;;;;;3.37;2.20;;;;;;;13.48;100.00;100736.41;5058114;28;20445;-78
2022/06/01 02:15:10;;;;;;;4.60;3.10;;;;;;;13.49;100.00;100735.25;5056975;28;20517;-78
2022/06/01 02:17:43;;;;;;;3.73;2.70;;;;;;;13.48;100.00;100731.75;5059259;28;20450;-79
2022/06/01 02:20:14;;;;;;;3.30;2.60;;;;;;;13.53;100.00;100738.97;5057986;28;20441;-78
2022/06/01 02:22:42;;;;;;;5.57;2.80;;;;;;;13.55;100.00;100732.09;5058436;28;21006;-79
2022/06/01 02:25:11;;;;;;;4.90;2.60;;;;;;;13.55;100.00;100728.56;5059354;28;20516;-79
2022/06/01 02:27:40;;;;;;;4.43;2.83;;;;;;;13.56;100.00;100730.16;5059810;28;20453;-79
2022/06/01 02:30:12;;;;;;;3.70;3.13;;;;;;;13.57;100.00;100723.59;5059833;28;20446;-79
2022/06/01 02:32:40;;;;;;;5.10;3.33;;;;;;;13.58;100.00;100738.81;5058709;28;20473;-79
2022/06/01 02:35:08;;;;;;;2.40;2.20;;;;;;;13.52;100.00;100729.19;5058528;28;20449;-79
2022/06/01 02:37:39;;;;;;;4.20;2.57;;;;;;;13.49;100.00;100732.53;5058311;28;20822;-79
2022/06/01 02:40:10;;;;;;;3.13;2.67;;;;;;;13.49;100.00;100724.38;5058601;28;20916;-79
2022/06/01 02:42:45;;;;;;;3.87;2.93;;;;;;;13.49;100.00;100721.66;5058175;28;20471;-78
2022/06/01 02:45:13;;;;;;;3.13;2.37;;;;;;;13.47;100.00;100715.75;5058586;28;20488;-79
2022/06/01 02:47:41;;;;;;;4.77;2.93;;;;;;;13.53;100.00;100719.91;5058457;28;20951;-78
2022/06/01 02:50:10;;;;;;;4.80;3.63;;;;;;;13.55;100.00;100739.47;5058974;28;20453;-78
2022/06/01 02:52:37;;;;;;;3.27;2.63;;;;;;;13.53;100.00;100725.34;5059075;28;20531;-79
2022/06/01 02:55:05;;;;;;;4.00;2.73;;;;;;;13.50;100.00;100728.69;5059321;28;20450;-78
2022/06/01 02:57:32;;;;;;;4.10;3.00;;;;;;;13.50;100.00;100728.69;5058977;28;20451;-78
2022/06/01 03:00:00;;;;;;;3.50;3.20;;;;;;;13.47;100.00;100729.34;5059407;28;20442;-78
2022/06/01 03:02:26;;;;;;;3.90;2.43;;;;;;;13.46;100.00;100730.44;5058805;28;20481;-79
2022/06/01 03:04:53;;;;;;;8.30;3.37;;;;;;;13.44;100.00;100729.97;5059293;28;20454;-80
2022/06/01 03:07:19;;;;;;;3.37;2.97;;;;;;;13.45;100.00;100728.84;5057052;28;20552;-79
2022/06/01 03:09:46;;;;;;;3.10;2.40;;;;;;;13.44;100.00;100730.78;5055774;28;20453;-79
2022/06/01 03:12:12;;;;;;;4.40;2.70;;;;;;;13.46;100.00;100731.28;5055319;28;20470;-79
2022/06/01 03:14:39;;;;;;;11.27;2.90;;;;;;;13.40;100.00;100720.84;5055418;28;20453;-79
2022/06/01 03:17:07;;;;;;;3.37;2.90;;;;;;;13.40;100.00;100732.53;5058437;28;20454;-79
2022/06/01 03:19:34;;;;;;;4.43;3.30;;;;;;;13.34;100.00;100728.34;5055852;28;20454;-79
2022/06/01 03:22:02;;;;;;;3.50;2.93;;;;;;;13.29;100.00;100726.59;5056910;28;20454;-79
2022/06/01 03:24:28;;;;;;;3.87;2.50;;;;;;;13.27;100.00;100728.81;5057122;28;20446;-79
2022/06/01 03:26:54;;;;;;;3.93;2.87;;;;;;;13.30;100.00;100733.63;5057643;28;20486;-80
2022/06/01 03:29:21;;;;;;;3.27;2.53;;;;;;;13.33;100.00;100727.56;5056883;28;20446;-79
2022/06/01 03:31:48;;;;;;;3.40;2.63;;;;;;;13.37;100.00;100727.72;5057293;28;20499;-79
2022/06/01 03:34:15;;;;;;;3.13;2.43;;;;;;;13.42;100.00;100727.59;5056692;28;20442;-79
2022/06/01 03:36:42;;;;;;;4.37;2.60;;;;;;;13.44;100.00;100728.06;5059459;28;20797;-79
2022/06/01 03:39:08;;;;;;;9.53;3.10;;;;;;;13.46;100.00;100733.16;5059068;28;20473;-79
2022/06/01 03:41:35;;;;;;;4.07;3.40;;;;;;;13.49;100.00;100735.25;5058092;28;20465;-79
2022/06/01 03:46:45;;;;;;;2.70;2.47;;;;;;;13.47;100.00;100734.78;5064184;28;20472;-79
2022/06/01 03:49:12;;;;;;;6.43;1.90;;;;;;;13.45;100.00;100735.09;5064424;28;20958;-79
2022/06/01 03:51:40;;;;;;;4.37;2.77;;;;;;;13.44;100.00;100747.09;5063695;28;20482;-79
2022/06/01 03:54:06;;;;;;;3.57;2.67;;;;;;;13.42;100.00;100740.38;5063383;28;20446;-79
2022/06/01 03:56:33;;;;;;;3.80;2.80;;;;;;;13.39;100.00;100739.09;5063053;28;20478;-79
2022/06/01 03:58:59;;;;;;;3.40;2.37;;;;;;;13.38;100.00;100745.66;5063163;28;20442;-79
2022/06/01 04:01:26;;;;;;;3.60;2.67;;;;;;;13.32;100.00;100742.25;5062609;28;20466;-79
2022/06/01 04:03:52;;;;;;;3.57;2.50;;;;;;;13.30;100.00;100751.88;5059104;28;21050;-79
2022/06/01 04:06:19;;;;;;;6.87;2.70;;;;;;;13.27;100.00;100749.75;5060331;28;20513;-79
2022/06/01 04:08:47;;;;;;;3.03;2.53;;;;;;;13.20;100.00;100752.13;5059947;28;20438;-79
2022/06/01 04:11:13;;;;;;;3.63;2.87;;;;;;;13.19;100.00;100754.03;5060308;28;20451;-79
2022/06/01 04:13:40;;;;;;;3.93;3.20;;;;;;;13.18;100.00;100752.41;5060337;28;20491;-80
2022/06/01 04:16:06;;;;;;;2.50;2.30;;;;;;;13.13;100.00;100749.84;5058469;28;20450;-75
2022/06/01 04:18:32;;;;;;;4.03;2.60;;;;;;;13.13;100.00;100753.38;5055620;28;20438;-76
2022/06/01 04:20:59;;;;;;;4.67;3.27;;;;;;;13.13;100.00;100753.38;5055388;28;20469;-77
2022/06/01 04:23:25;;;;;;;3.80;2.70;;;;;;;13.09;100.00;100752.38;5055403;28;20496;-76
2022/06/01 04:25:53;;;;;;;4.03;2.80;;;;;;;13.12;100.00;100756.41;5055340;28;20485;-75
2022/06/01 04:28:19;;;;;;;3.43;2.93;;;;;;;13.12;100.00;100756.41;5055136;28;20496;-76
2022/06/01 04:30:47;;;;;;;5.03;3.20;;;;;;;13.14;100.00;100752.25;5055193;28;20473;-76
2022/06/01 04:33:13;;;;;;;6.60;2.67;;;;;;;13.19;100.00;100755.94;5055422;28;20518;-76
2022/06/01 04:35:40;;;;;;;5.00;3.00;;;;;;;13.21;100.00;100759.97;5054856;28;20442;-76
2022/06/01 04:38:15;;;;;;;5.67;3.00;;;;;;;13.20;100.00;100760.28;5055204;28;20450;-76
2022/06/01 04:40:43;;;;;;;6.27;4.13;;;;;;;13.23;100.00;100759.66;5055147;28;20422;-76
2022/06/01 04:43:11;;;;;;;4.80;3.13;;;;;;;13.29;100.00;100767.38;5054991;28;20469;-77
2022/06/01 04:45:38;;;;;;;3.70;3.00;;;;;;;13.36;100.00;100765.00;5054713;28;20457;-76
2022/06/01 04:48:05;;;;;;;7.27;4.50;;;;;;;13.44;100.00;100754.47;5054310;28;20854;-76
2022/06/01 04:50:31;;;;;;;7.00;3.73;;;;;;;13.51;100.00;100766.50;5055175;28;20960;-77
2022/06/01 04:52:58;;;;;;;4.90;3.10;;;;;;;13.49;100.00;100767.91;5054761;28;20481;-74
2022/06/01 04:55:24;;;;;;;10.37;3.97;;;;;;;13.57;100.00;100770.66;5055102;28;20455;-74
2022/06/01 04:57:51;;;;;;;5.40;4.17;;;;;;;13.61;99.46;100768.13;5057735;28;20868;-78
2022/06/01 05:00:22;;;;;;;5.10;3.40;;;;;;;13.67;99.44;100774.22;5055120;28;20434;-75
2022/06/01 05:02:48;;;;;;;4.00;3.00;;;;;;;13.75;99.44;100770.72;5054628;28;20512;-75
2022/06/01 05:05:15;;;;;;;4.07;3.03;;;;;;;13.77;98.49;100776.66;5054434;28;20496;-75
2022/06/01 05:07:41;;;;;;;9.73;4.10;;;;;;;13.78;97.51;100775.53;5054346;28;20477;-75
2022/06/01 05:10:08;;;;;;;3.93;2.87;;;;;;;13.77;97.67;100769.28;5054445;28;20443;-75
2022/06/01 05:12:35;;;;;;;5.77;4.13;;;;;;;13.73;96.92;100770.25;5054325;28;20466;-75
2022/06/01 05:15:02;;;;;;;4.73;2.90;;;;;;;13.68;97.25;100770.38;5054435;28;20912;-75
2022/06/01 05:17:32;;;;;;;4.40;3.43;;;;;;;13.65;96.98;100766.38;5054017;28;20847;-75
2022/06/01 05:19:59;;;;;;;4.67;3.40;;;;;;;13.61;96.97;100766.19;5054342;28;20461;-75
2022/06/01 05:22:25;;;;;;;5.50;3.53;;;;;;;13.61;97.35;100776.28;5053845;28;20852;-75
2022/06/01 05:24:52;;;;;;;4.70;3.03;;;;;;;13.50;97.31;100778.50;5054120;28;20449;-75
2022/06/01 05:27:18;;;;;;;5.70;3.47;;;;;;;13.51;97.06;100771.16;5055022;28;20485;-78
2022/06/01 05:29:45;;;;;;;10.07;4.17;;;;;;;13.56;97.73;100769.06;5055945;28;20446;-77
2022/06/01 05:32:12;;;;;;;4.57;3.00;;;;;;;13.60;97.16;100777.41;5054063;28;20469;-74
2022/06/01 05:34:40;;;;;;;4.93;3.70;;;;;;;13.62;96.70;100777.88;5053646;28;20446;-76
2022/06/01 05:37:06;;;;;;;3.50;3.10;;;;;;;13.59;96.54;100776.63;5053969;28;20438;-76
2022/06/01 05:39:33;;;;;;;5.37;3.63;;;;;;;13.58;95.00;100777.72;5053977;28;20519;-76
2022/06/01 05:41:59;;;;;;;3.77;3.37;;;;;;;13.54;94.89;100765.06;5053719;28;20458;-76
2022/06/01 05:44:26;;;;;;;4.07;3.43;;;;;;;13.53;95.97;100771.63;5053505;28;20438;-76
2022/06/01 05:46:54;;;;;;;4.73;3.20;;;;;;;13.58;94.42;100771.47;5053623;28;20482;-76
2022/06/01 05:49:21;;;;;;;5.83;3.63;;;;;;;13.62;93.82;100767.00;5053383;28;20476;-76
2022/06/01 05:51:49;;;;;;;4.83;3.37;;;;;;;13.63;93.81;100769.41;5053342;28;20485;-76
2022/06/01 05:54:15;;;;;;;5.87;3.60;;;;;;;13.72;93.19;100772.13;5053712;28;20442;-76
2022/06/01 05:56:42;;;;;;;7.00;3.83;;;;;;;13.79;92.90;100768.97;5053758;28;20438;-76
2022/06/01 05:59:08;;;;;;;5.80;2.93;;;;;;;13.97;93.54;100761.59;5052825;28;20457;-76
2022/06/01 06:01:35;;;;;;;3.30;2.87;;;;;;;14.15;92.13;100768.66;5053612;28;20469;-76
2022/06/01 06:04:01;;;;;;;4.13;3.17;;;;;;;14.28;89.46;100766.91;5053375;28;20512;-76
2022/06/01 06:06:28;;;;;;;4.60;3.03;;;;;;;14.35;88.54;100764.50;5053546;28;20481;-77
2022/06/01 06:09:00;;;;;;;4.10;2.40;;;;;;;14.47;90.06;100777.47;5053698;28;20458;-76
2022/06/01 06:11:28;;;;;;;5.40;3.50;;;;;;;14.53;89.91;100778.94;5053822;28;20468;-75
2022/06/01 06:13:55;;;;;;;2.77;2.20;;;;;;;14.58;88.07;100781.50;5053581;28;20433;-74
2022/06/01 06:16:22;;;;;;;6.93;3.67;;;;;;;14.65;88.30;100781.78;5053313;28;20434;-74
2022/06/01 06:18:50;;;;;;;4.20;3.03;;;;;;;14.70;85.91;100784.38;5053346;28;20443;-78
2022/06/01 06:21:18;;;;;;;2.87;2.47;;;;;;;14.72;86.88;100782.13;5055373;28;20481;-78
2022/06/01 06:23:44;;;;;;;3.90;3.27;;;;;;;14.81;87.96;100785.63;5056653;28;20838;-77
2022/06/01 06:26:12;;;;;;;3.00;2.43;;;;;;;14.92;88.81;100782.53;5056053;28;20456;-78
2022/06/01 06:28:38;;;;;;;1.90;1.70;;;;;;;15.01;87.80;100772.44;5055293;28;20449;-78
2022/06/01 06:31:05;;;;;;;3.33;2.30;;;;;;;15.06;85.99;100775.78;5056742;28;20454;-80
2022/06/01 06:33:31;;;;;;;5.30;2.67;;;;;;;15.13;84.72;100777.97;5056083;28;20451;-78
2022/06/01 06:36:00;;;;;;;3.73;2.80;;;;;;;15.24;84.41;100779.22;5053221;28;20457;-73
2022/06/01 06:38:28;;;;;;;3.00;2.03;;;;;;;15.25;83.16;100767.19;5053075;28;20476;-73
2022/06/01 06:40:55;;;;;;;2.23;1.93;;;;;;;15.16;86.05;100760.97;5053000;28;20438;-74
2022/06/01 06:43:24;;;;;;;2.60;2.13;;;;;;;15.23;84.77;100771.34;5052710;28;20944;-74
2022/06/01 06:45:51;;;;;;;2.63;2.07;;;;;;;15.34;84.93;100773.41;5053038;28;20442;-74
2022/06/01 06:48:18;;;;;;;2.20;2.00;;;;;;;15.20;82.95;100775.56;5052888;28;20489;-72
2022/06/01 06:50:44;;;;;;;2.93;2.17;;;;;;;15.29;81.57;100780.97;5053014;28;20537;-72
2022/06/01 06:53:11;;;;;;;2.37;1.83;;;;;;;15.35;79.74;100777.72;5052590;28;20481;-73
2022/06/01 06:55:37;;;;;;;2.77;1.50;;;;;;;15.44;80.92;100779.63;5053798;28;20994;-73
2022/06/01 06:58:04;;;;;;;2.40;1.83;;;;;;;15.58;82.45;100769.25;5052473;28;20442;-74
2022/06/01 07:00:32;;;;;;;3.60;2.53;;;;;;;15.72;82.13;100775.31;5052881;28;20508;-72
2022/06/01 07:02:58;;;;;;;3.70;2.07;;;;;;;16.00;79.49;100774.81;5052964;28;20508;-71
2022/06/01 07:08:09;;;;;;;3.33;2.30;;;;;;;16.25;78.07;100771.09;5052525;28;20843;-71
2022/06/01 07:10:35;;;;;;;4.40;2.50;;;;;;;16.28;76.62;100777.78;5054843;28;21026;-72
2022/06/01 07:13:02;;;;;;;2.50;1.80;;;;;;;16.34;77.85;100780.00;5056830;28;20461;-71
2022/06/01 07:15:29;;;;;;;3.03;2.40;;;;;;;16.39;77.70;100787.19;5056323;28;21023;-73
2022/06/01 07:17:56;;;;;;;3.20;2.30;;;;;;;16.42;77.16;100791.19;5056881;28;20478;-72
2022/06/01 07:20:23;;;;;;;3.03;1.80;;;;;;;16.39;76.87;100793.47;5056584;28;20442;-72
2022/06/01 07:22:50;;;;;;;3.03;1.73;;;;;;;16.39;79.06;100804.41;5056608;28;20549;-72
2022/06/01 07:25:17;;;;;;;3.47;2.97;;;;;;;16.34;77.73;100806.56;5056213;28;21011;-72
2022/06/01 07:27:43;;;;;;;2.80;2.30;;;;;;;16.32;77.60;100808.81;5055955;28;21003;-71
2022/06/01 07:30:11;;;;;;;2.00;1.50;;;;;;;16.38;78.21;100807.47;5056063;28;20438;-70
2022/06/01 07:32:38;;;;;;;2.80;2.30;;;;;;;16.37;79.34;100811.31;5055956;28;20885;-70
2022/06/01 07:35:06;;;;;;;4.20;2.27;;;;;;;16.44;78.92;100806.13;5056058;28;20947;-70
2022/06/01 07:43:07;;;;;;;5.37;3.17;;;;;;;16.49;76.06;100810.59;5055859;28;20446;-72
2022/06/01 07:45:35;;;;;;;6.30;2.33;;;;;;;16.49;76.76;100802.38;5056074;28;20430;-73
2022/06/01 07:48:02;;;;;;;3.63;2.00;;;;;;;16.58;75.79;100803.09;5056038;28;20547;-73
2022/06/01 07:50:30;;;;;;;3.97;2.60;;;;;;;16.62;75.67;100804.84;5056114;28;20481;-73
2022/06/01 07:52:56;;;;;;;4.67;2.83;;;;;;;16.70;73.36;100800.44;5055395;28;20882;-73
2022/06/01 07:55:23;;;;;;;2.53;2.33;;;;;;;16.55;73.76;100801.84;5056180;28;20454;-72
2022/06/01 07:57:49;;;;;;;3.40;2.60;;;;;;;16.46;74.43;100797.59;5055846;28;20492;-73
2022/06/01 08:00:17;;;;;;;4.60;3.10;;;;;;;16.42;75.25;100797.44;5055816;28;20441;-73
2022/06/01 08:02:43;;;;;;;6.40;2.53;;;;;;;16.47;75.28;100793.69;5055415;28;20935;-74
2022/06/01 08:05:13;;;;;;;3.20;2.07;;;;;;;16.64;75.94;100796.28;5055364;28;20434;-74
2022/06/01 08:07:40;;;;;;;3.20;2.20;;;;;;;16.63;73.71;100803.69;5055409;28;20482;-73
2022/06/01 08:10:09;;;;;;;4.90;2.57;;;;;;;16.77;74.49;100797.94;5055602;28;20453;-73
2022/06/01 08:15:20;;;;;;;2.43;1.60;;;;;;;17.13;73.77;100796.44;5055381;28;20436;-73
2022/06/01 08:17:47;;;;;;;4.50;1.93;;;;;;;17.24;72.89;100805.81;5055479;28;20438;-74
2022/06/01 08:20:14;;;;;;;3.30;1.97;;;;;;;17.22;71.07;100807.28;5055125;28;20890;-74
2022/06/01 08:22:43;;;;;;;2.80;2.10;;;;;;;17.28;72.02;100808.69;5054279;28;20465;-74
2022/06/01 08:25:13;;;;;;;3.00;1.77;;;;;;;17.26;70.55;100816.41;5055051;28;20882;-73
2022/06/01 08:27:39;;;;;;;2.63;1.83;;;;;;;17.21;71.75;100808.44;5055149;28;20907;-73
2022/06/01 08:30:06;;;;;;;4.23;2.43;;;;;;;17.31;71.07;100810.72;5055270;28;20470;-73
2022/06/01 08:32:33;;;;;;;2.67;2.13;;;;;;;17.29;70.94;100823.97;5055217;28;20535;-73
2022/06/01 08:34:59;;;;;;;3.57;1.90;;;;;;;17.14;71.13;100811.75;5055138;28;20446;-73
2022/06/01 08:37:26;;;;;;;1.97;1.57;;;;;;;17.09;71.42;100810.03;5055112;28;20447;-73
2022/06/01 08:39:54;;;;;;;3.30;2.10;;;;;;;17.25;74.07;100818.34;5055290;28;20516;-73
2022/06/01 08:42:23;;;;;;;2.80;2.20;;;;;;;17.38;70.58;100816.44;5054957;28;20496;-73
2022/06/01 08:44:51;;;;;;;4.27;2.30;;;;;;;17.52;70.30;100821.56;5055225;28;20545;-73
2022/06/01 08:47:23;;;;;;;4.30;1.60;;;;;;;17.64;70.37;100818.84;5054538;28;20482;-74
2022/06/01 08:49:50;;;;;;;2.13;1.77;;;;;;;17.74;70.69;100820.34;5055220;28;20448;-74
2022/06/01 08:52:16;;;;;;;2.40;1.40;;;;;;;17.74;68.32;100823.88;5054488;28;20469;-73
2022/06/01 08:54:42;;;;;;;3.17;1.70;;;;;;;17.86;66.93;100832.09;5054818;28;20442;-73
2022/06/01 08:57:15;;;;;;;4.07;1.57;;;;;;;17.93;67.43;100830.72;5054620;28;20434;-74
2022/06/01 08:59:50;;;;;;;2.13;1.60;;;;;;;18.01;67.00;100822.38;5054766;28;20453;-73
2022/06/01 09:02:28;;;;;;;3.03;1.80;;;;;;;18.18;65.93;100826.78;5054607;28;20454;-74
2022/06/01 09:05:03;;;;;;;1.77;1.40;;;;;;;18.26;64.97;100825.06;5054659;28;20449;-74
2022/06/01 09:07:33;;;;;;;3.03;1.80;;;;;;;18.26;66.03;100808.63;5054507;28;20507;-73
2022/06/01 09:10:18;;;;;;;3.93;2.20;;;;;;;18.03;62.66;100822.03;5054500;28;20499;-74
2022/06/01 09:13:01;;;;;;;3.00;1.63;;;;;;;18.01;62.71;100827.84;5054094;28;20826;-74
2022/06/01 09:15:30;;;;;;;1.63;1.40;;;;;;;18.05;63.16;100825.22;5054408;28;20418;-74
2022/06/01 09:17:57;;;;;;;2.60;1.50;;;;;;;18.08;61.48;100824.53;5054057;28;20944;-74
2022/06/01 09:23:16;;;;;;;1.90;1.10;;;;;;;17.84;63.50;100823.44;5054040;28;20439;-74
2022/06/01 09:25:50;;;;;;;2.60;2.10;;;;;;;17.69;58.81;100821.34;5054234;28;20433;-73
2022/06/01 09:28:21;;;;;;;2.40;1.70;;;;;;;17.85;60.73;100810.53;5054138;28;20552;-74
2022/06/01 09:30:55;;;;;;;3.00;1.83;;;;;;;17.87;61.16;100816.44;5054129;28;20433;-73
2022/06/01 09:33:25;;;;;;;1.40;1.30;;;;;;;18.00;62.09;100806.28;5053826;28;20476;-73
2022/06/01 09:36:04;;;;;;;2.53;1.50;;;;;;;18.22;61.55;100811.25;5054047;28;20502;-74
2022/06/01 09:38:38;;;;;;;4.50;1.60;;;;;;;18.41;57.59;100808.66;5053976;28;20429;-74
2022/06/01 09:41:07;;;;;;;2.40;1.43;;;;;;;18.53;56.66;100812.50;5053901;28;20485;-74
2022/06/01 09:43:34;;;;;;;1.90;1.70;;;;;;;18.63;58.08;100798.28;5053838;28;20446;-75
2022/06/01 09:46:01;;;;;;;2.43;1.30;;;;;;;18.76;56.79;100799.84;5053807;28;20446;-74
2022/06/01 09:48:31;;;;;;;1.93;1.60;;;;;;;18.79;58.73;100801.09;5053700;28;20481;-74
2022/06/01 09:51:23;;;;;;;2.53;1.60;;;;;;;18.96;56.89;100808.22;5053453;28;20450;-74
2022/06/01 09:53:52;;;;;;;3.30;1.50;;;;;;;19.09;55.53;100794.06;5034734;28;20508;-74
2022/06/01 09:56:30;;;;;;;2.00;1.30;;;;;;;19.19;54.88;100789.19;5053922;28;20500;-73
2022/06/01 10:07:21;;;;;;;3.00;1.90;;;;;;;19.09;55.86;100780.34;5053217;28;20923;-74
2022/06/01 10:09:51;;;;;;;2.03;1.30;;;;;;;19.12;55.81;100781.56;5053499;28;20487;-74
2022/06/01 10:12:25;;;;;;;2.47;1.43;;;;;;;19.29;55.04;100774.91;5053331;28;20462;-74
2022/06/01 10:14:55;;;;;;;2.70;1.30;;;;;;;19.60;56.01;100779.59;5053453;28;20444;-74
2022/06/01 10:17:27;;;;;;;1.67;1.30;;;;;;;19.82;53.49;100775.41;5053343;28;20823;-74
2022/06/01 10:19:59;;;;;;;3.23;2.00;;;;;;;19.97;53.21;100777.31;5053027;28;20429;-74
2022/06/01 10:22:34;;;;;;;3.90;1.93;;;;;;;19.80;51.48;100777.72;5053224;28;20473;-75
2022/06/01 10:25:06;;;;;;;1.33;0.97;;;;;;;19.70;54.03;100773.59;5053252;28;20799;-74
2022/06/01 10:27:46;;;;;;;2.53;1.47;;;;;;;19.68;54.11;100758.59;5053132;28;20466;-73
2022/06/01 10:30:19;;;;;;;3.17;1.83;;;;;;;19.59;55.32;100756.81;5053248;28;20513;-74
2022/06/01 10:32:51;;;;;;;1.53;1.27;;;;;;;19.56;54.65;100756.72;5053102;28;20458;-74
2022/06/01 10:35:32;;;;;;;2.20;1.67;;;;;;;19.70;54.22;100768.09;5052833;28;20426;-74
2022/06/01 10:38:12;;;;;;;1.40;1.20;;;;;;;19.78;51.80;100752.53;5053115;28;20485;-74
2022/06/01 10:40:44;;;;;;;2.03;1.37;;;;;;;19.70;55.05;100751.59;5053047;28;20939;-74
2022/06/01 10:43:21;;;;;;;2.40;1.60;;;;;;;20.07;52.15;100741.00;5052942;28;20461;-73
2022/06/01 10:45:53;;;;;;;3.60;1.67;;;;;;;20.21;51.83;100743.22;5055952;28;20438;-74
2022/06/01 10:48:24;;;;;;;2.37;1.00;;;;;;;20.36;50.62;100745.13;5057379;28;20485;-75
2022/06/01 10:51:00;;;;;;;2.30;1.40;;;;;;;20.25;50.57;100743.31;5056886;28;20889;-74
2022/06/01 10:53:36;;;;;;;5.07;1.80;;;;;;;20.30;48.75;100738.31;5057108;28;20804;-73
2022/06/01 10:56:03;;;;;;;1.77;1.33;;;;;;;20.38;49.77;100737.28;5057049;28;20780;-74
2022/06/01 10:58:30;;;;;;;2.67;1.50;;;;;;;20.38;46.95;100742.00;5057083;28;20692;-74
2022/06/01 11:01:08;;;;;;;2.63;2.07;;;;;;;20.22;48.48;100741.28;5056824;28;20442;-74
2022/06/01 11:04:12;;;;;;;2.90;1.83;;;;;;;20.21;48.80;100737.72;5056939;28;20488;-74
2022/06/01 11:06:58;;;;;;;3.17;2.10;;;;;;;20.41;45.75;100736.56;5056322;28;20449;-73
2022/06/01 11:09:33;;;;;;;1.80;1.30;;;;;;;20.35;46.60;100737.22;5056467;28;20512;-74
2022/06/01 11:12:11;;;;;;;2.40;1.50;;;;;;;20.31;47.68;100730.84;5056633;28;20523;-74
2022/06/01 11:14:56;;;;;;;2.30;1.70;;;;;;;20.70;49.93;100725.31;5056711;28;20427;-74
2022/06/01 11:17:32;;;;;;;2.60;1.43;;;;;;;21.06;46.52;100723.94;5056648;28;20442;-74
2022/06/01 11:20:14;;;;;;;2.70;1.70;;;;;;;21.41;44.44;100738.31;5056660;28;20434;-74
2022/06/01 11:22:56;;;;;;;4.47;1.73;;;;;;;21.58;45.20;100734.22;5056542;28;20470;-74
2022/06/01 11:25:27;;;;;;;2.83;1.50;;;;;;;21.97;44.38;100730.41;5056134;28;20833;-74
2022/06/01 11:28:10;;;;;;;2.03;1.17;;;;;;;22.33;44.84;100732.44;5056401;28;20466;-74
2022/06/01 11:30:48;;;;;;;1.90;1.43;;;;;;;22.83;43.74;100723.88;5056404;28;20430;-74
2022/06/01 11:33:25;;;;;;;3.20;1.30;;;;;;;23.47;41.68;100734.69;5056279;28;20884;-74
2022/06/01 11:35:58;;;;;;;1.50;1.07;;;;;;;23.88;43.92;100727.81;5055970;28;20897;-73
2022/06/01 11:38:29;;;;;;;2.00;1.50;;;;;;;23.87;39.22;100722.69;5056445;28;20423;-71
2022/06/01 11:41:01;;;;;;;5.53;1.90;;;;;;;23.52;40.76;100729.56;5056186;28;20425;-70
2022/06/01 11:43:33;;;;;;;1.77;1.30;;;;;;;22.34;41.83;100731.28;5056197;28;20434;-74
2022/06/01 11:46:02;;;;;;;1.67;1.20;;;;;;;21.67;43.64;100739.47;5056486;28;20425;-77
2022/06/01 11:48:34;;;;;;;1.00;0.83;;;;;;;21.13;44.80;100743.34;5056458;28;20524;-77
2022/06/01 11:51:12;;;;;;;1.20;1.03;;;;;;;21.00;45.42;100748.25;5055902;28;20426;-75
2022/06/01 11:53:47;;;;;;;2.70;1.50;;;;;;;21.47;45.03;100740.75;5055647;28;20431;-74
2022/06/01 11:56:23;;;;;;;1.80;1.23;;;;;;;22.04;42.94;100744.28;5055961;28;20446;-75
2022/06/01 11:59:03;;;;;;;2.33;1.10;;;;;;;22.53;41.80;100735.03;5055602;28;20464;-75
2022/06/01 12:01:35;;;;;;;3.03;1.23;;;;;;;23.00;41.04;100733.53;5055797;28;20461;-75
2022/06/01 12:04:18;;;;;;;1.53;1.10;;;;;;;23.36;39.91;100729.84;5055847;28;20419;-76